createdAt,value
2023-07-22T00:00:58.737Z,49.97
2023-07-22T00:03:57.992Z,49.97
2023-07-22T00:06:57.507Z,49.97
2023-07-22T00:09:57.876Z,49.97
2023-07-22T00:12:57.402Z,49.97
2023-07-22T00:15:57.746Z,49.97
2023-07-22T00:18:56.790Z,49.97
2023-07-22T00:21:57.353Z,49.97
2023-07-22T00:24:57.020Z,49.97
2023-07-22T00:27:57.182Z,49.97
2023-07-22T00:30:58.314Z,49.97
2023-07-22T00:33:56.729Z,49.97
2023-07-22T00:36:58.025Z,49.97
2023-07-22T00:39:56.982Z,49.97
2023-07-22T00:42:57.234Z,49.97
2023-07-22T00:45:57.219Z,49.97
2023-07-22T00:48:57.027Z,49.97
2023-07-22T00:51:57.260Z,49.97
2023-07-22T00:54:57.655Z,49.97
2023-07-22T00:57:57.223Z,49.97
2023-07-22T01:00:57.725Z,49.97
2023-07-22T01:03:57.687Z,49.97
2023-07-22T01:06:56.904Z,49.97
2023-07-22T01:09:58.072Z,49.97
2023-07-22T01:12:57.767Z,49.97
2023-07-22T01:15:56.992Z,49.97
2023-07-22T01:18:57.346Z,49.97
2023-07-22T01:21:57.894Z,49.97
2023-07-22T01:24:57.027Z,49.97
2023-07-22T01:27:57.353Z,49.97
2023-07-22T01:30:57.392Z,49.97
2023-07-22T01:33:57.490Z,49.97
2023-07-22T01:36:57.627Z,49.97
2023-07-22T01:39:56.979Z,49.97
2023-07-22T01:42:57.573Z,49.97
2023-07-22T01:45:57.745Z,49.97
2023-07-22T01:48:57.030Z,49.97
2023-07-22T01:51:56.962Z,49.97
2023-07-22T01:54:56.500Z,49.97
2023-07-22T01:57:56.779Z,49.97
2023-07-22T02:00:57.357Z,49.97
2023-07-22T02:03:57.486Z,49.97
2023-07-22T02:06:56.789Z,49.97
2023-07-22T02:09:57.916Z,49.97
2023-07-22T02:12:57.066Z,49.97
2023-07-22T02:15:57.384Z,49.97
2023-07-22T02:18:57.231Z,49.97
2023-07-22T02:21:57.413Z,49.97
2023-07-22T02:24:58.089Z,49.97
2023-07-22T02:27:57.615Z,49.97
2023-07-22T02:30:57.707Z,49.97
2023-07-22T02:33:57.769Z,49.97
2023-07-22T02:36:57.720Z,49.97
2023-07-22T02:39:57.097Z,49.97
2023-07-22T02:42:57.037Z,49.97
2023-07-22T02:45:57.675Z,49.97
2023-07-22T02:48:57.222Z,49.97
2023-07-22T02:51:57.800Z,49.97
2023-07-22T02:54:57.484Z,49.97
2023-07-22T02:57:57.472Z,49.97
2023-07-22T03:00:57.552Z,49.97
2023-07-22T03:03:57.533Z,49.97
2023-07-22T03:06:57.982Z,49.97
2023-07-22T03:09:57.635Z,49.97
2023-07-22T03:12:57.389Z,49.97
2023-07-22T03:15:57.927Z,49.97
2023-07-22T03:18:57.465Z,49.97
2023-07-22T03:21:57.046Z,49.97
2023-07-22T03:24:56.923Z,49.97
2023-07-22T03:27:57.131Z,49.97
2023-07-22T03:30:57.135Z,49.97
2023-07-22T03:33:57.116Z,49.97
2023-07-22T03:36:58.081Z,49.97
2023-07-22T03:39:57.812Z,49.97
2023-07-22T03:42:57.166Z,49.98
2023-07-22T03:45:57.563Z,50
2023-07-22T03:48:57.557Z,50.02
2023-07-22T03:51:57.566Z,49.98
2023-07-22T03:54:57.808Z,50.01
2023-07-22T03:57:57.175Z,49.99
2023-07-22T04:00:58.110Z,49.98
2023-07-22T04:03:57.878Z,49.99
2023-07-22T04:06:57.307Z,49.97
2023-07-22T04:09:57.708Z,49.99
2023-07-22T04:12:57.340Z,49.99
2023-07-22T04:15:57.852Z,49.98
2023-07-22T04:18:58.056Z,49.99
2023-07-22T04:21:57.453Z,49.99
2023-07-22T04:24:57.369Z,49.98
2023-07-22T04:27:56.866Z,49.98
2023-07-22T04:30:57.933Z,49.98
2023-07-22T04:33:57.186Z,49.99
2023-07-22T04:36:57.591Z,50
2023-07-22T04:39:57.057Z,50
2023-07-22T04:42:58.021Z,49.99
2023-07-22T04:45:57.079Z,49.99
2023-07-22T04:48:57.046Z,49.98
2023-07-22T04:51:57.928Z,49.99
2023-07-22T04:54:57.182Z,50
2023-07-22T04:57:57.743Z,49.99
2023-07-22T05:00:57.320Z,50.02
2023-07-22T05:03:57.827Z,49.99
2023-07-22T05:06:57.149Z,49.98
2023-07-22T05:09:57.248Z,50
2023-07-22T05:12:57.436Z,50.01
2023-07-22T05:15:57.923Z,49.99
2023-07-22T05:18:57.645Z,50.01
2023-07-22T05:21:57.597Z,50
2023-07-22T05:24:57.557Z,50.01
2023-07-22T05:27:56.786Z,49.96
2023-07-22T05:30:58.234Z,49.97
2023-07-22T05:33:57.433Z,50
2023-07-22T05:36:57.211Z,50
2023-07-22T05:39:57.205Z,50
2023-07-22T05:42:57.635Z,50.01
2023-07-22T05:45:57.645Z,50
2023-07-22T05:48:57.170Z,50.01
2023-07-22T05:51:57.545Z,50
2023-07-22T05:54:57.222Z,50
2023-07-22T05:57:57.202Z,49.99
2023-07-22T06:00:58.794Z,50.01
2023-07-22T06:03:57.243Z,49.98
2023-07-22T06:06:57.078Z,50.03
2023-07-22T06:09:57.764Z,50.02
2023-07-22T06:12:57.816Z,50
2023-07-22T06:15:57.715Z,49.96
2023-07-22T06:18:56.957Z,49.98
2023-07-22T06:21:57.651Z,50
2023-07-22T06:24:57.460Z,50.01
2023-07-22T06:27:57.803Z,50
2023-07-22T06:30:58.299Z,49.96
2023-07-22T06:33:56.688Z,50
2023-07-22T06:36:57.493Z,49.97
2023-07-22T06:39:57.694Z,50.01
2023-07-22T06:42:57.585Z,50.02
2023-07-22T06:45:58.231Z,49.97
2023-07-22T06:48:57.335Z,49.99
2023-07-22T06:51:56.872Z,50.01
2023-07-22T06:54:57.330Z,50.01
2023-07-22T06:57:57.797Z,49.96
2023-07-22T07:00:57.617Z,50.02
2023-07-22T07:03:57.476Z,49.98
2023-07-22T07:06:57.874Z,49.96
2023-07-22T07:09:57.134Z,49.99
2023-07-22T07:12:57.065Z,49.98
2023-07-22T07:15:57.238Z,49.96
2023-07-22T07:18:57.108Z,49.98
2023-07-22T07:21:57.888Z,50.03
2023-07-22T07:24:57.469Z,50.03
2023-07-22T07:27:57.884Z,50.02
2023-07-22T07:30:57.297Z,50.01
2023-07-22T07:33:57.754Z,50
2023-07-22T07:36:57.010Z,49.99
2023-07-22T07:40:02.331Z,50
2023-07-22T07:42:57.746Z,50.02
2023-07-22T07:46:03.117Z,49.99
2023-07-22T07:48:58.943Z,50.02
2023-07-22T07:51:57.524Z,50.01
2023-07-22T07:54:57.519Z,50.01
2023-07-22T07:57:57.203Z,50.02
2023-07-22T08:00:57.997Z,50
2023-07-22T08:03:57.860Z,49.97
2023-07-22T08:06:57.129Z,49.97
2023-07-22T08:09:56.712Z,49.99
2023-07-22T08:12:57.445Z,50.02
2023-07-22T08:15:58.240Z,50
2023-07-22T08:18:57.229Z,50.02
2023-07-22T08:21:57.700Z,50.04
2023-07-22T08:24:57.986Z,50.01
2023-07-22T08:27:57.752Z,50.01
2023-07-22T08:30:58.119Z,50
2023-07-22T08:33:57.458Z,50
2023-07-22T08:36:57.188Z,50.03
2023-07-22T08:39:57.627Z,50.01
2023-07-22T08:42:56.896Z,50.04
2023-07-22T08:45:57.768Z,50.03
2023-07-22T08:48:57.703Z,50.05
2023-07-22T08:51:57.642Z,50.05
2023-07-22T08:54:57.729Z,50.03
2023-07-22T08:58:02.846Z,50.03
2023-07-22T09:00:57.964Z,50.02
2023-07-22T09:03:57.695Z,50.01
2023-07-22T09:06:57.102Z,49.98
2023-07-22T09:09:57.716Z,50.02
2023-07-22T09:12:57.673Z,50.02
2023-07-22T09:15:57.565Z,50.01
2023-07-22T09:18:57.076Z,50.02
2023-07-22T09:21:57.188Z,50.02
2023-07-22T09:24:57.748Z,50.01
2023-07-22T09:27:57.171Z,50
2023-07-22T09:30:58.147Z,49.99
2023-07-22T09:33:57.239Z,49.99
2023-07-22T09:36:57.707Z,50.01
2023-07-22T09:39:57.283Z,49.99
2023-07-22T09:42:57.023Z,50
2023-07-22T09:45:56.976Z,49.98
2023-07-22T09:48:57.319Z,50
2023-07-22T09:52:02.589Z,50.01
2023-07-22T09:54:57.362Z,50.02
2023-07-22T09:57:57.354Z,50
2023-07-22T10:00:57.899Z,50.02
2023-07-22T10:03:57.781Z,50.01
2023-07-22T10:06:57.645Z,50.02
2023-07-22T10:09:57.021Z,50
2023-07-22T10:12:57.353Z,50.02
2023-07-22T10:15:57.509Z,49.99
2023-07-22T10:18:58.534Z,50.01
2023-07-22T10:21:56.996Z,50
2023-07-22T10:24:57.246Z,50
2023-07-22T10:27:57.593Z,49.99
2023-07-22T10:30:57.353Z,49.98
2023-07-22T10:33:57.895Z,49.99
2023-07-22T10:36:57.304Z,49.99
2023-07-22T10:39:57.083Z,49.99
2023-07-22T10:42:57.090Z,49.98
2023-07-22T10:45:57.091Z,50.01
2023-07-22T10:48:57.289Z,50
2023-07-22T10:51:57.456Z,50
2023-07-22T10:54:57.412Z,50.01
2023-07-22T10:57:57.471Z,50
2023-07-22T11:00:57.502Z,49.98
2023-07-22T11:04:16.033Z,49.97
2023-07-22T11:06:56.895Z,49.98
2023-07-22T11:09:57.342Z,49.97
2023-07-22T11:12:58.503Z,49.99
2023-07-22T11:15:57.879Z,49.99
2023-07-22T11:18:57.192Z,50
2023-07-22T11:21:57.586Z,50
2023-07-22T11:24:57.533Z,50.02
2023-07-22T11:27:58.148Z,50
2023-07-22T11:30:57.770Z,49.99
2023-07-22T11:33:56.977Z,49.99
2023-07-22T11:36:57.514Z,50
2023-07-22T11:39:58.016Z,50
2023-07-22T11:42:57.566Z,50
2023-07-22T11:45:57.486Z,50
2023-07-22T11:48:57.965Z,49.99
2023-07-22T11:51:57.474Z,49.98
2023-07-22T11:54:57.660Z,50
2023-07-22T11:57:57.083Z,50
2023-07-22T12:01:05.900Z,49.99
2023-07-22T12:03:57.035Z,49.97
2023-07-22T12:06:57.863Z,49.97
2023-07-22T12:09:57.013Z,49.97
2023-07-22T12:12:56.993Z,49.98
2023-07-22T12:15:57.148Z,49.97
2023-07-22T12:18:58.238Z,49.98
2023-07-22T12:21:57.797Z,49.99
2023-07-22T12:24:57.442Z,49.98
2023-07-22T12:27:57.875Z,50
2023-07-22T12:30:57.412Z,49.99
2023-07-22T12:33:57.502Z,50
2023-07-22T12:36:57.578Z,50.02
2023-07-22T12:39:57.853Z,50
2023-07-22T12:42:57.586Z,50
2023-07-22T12:45:58.026Z,50
2023-07-22T12:48:57.187Z,50.02
2023-07-22T12:51:57.884Z,50.01
2023-07-22T12:54:57.273Z,49.99
2023-07-22T12:57:56.900Z,50.01
2023-07-22T13:00:57.737Z,50.01
2023-07-22T13:03:57.540Z,50.02
2023-07-22T13:06:57.356Z,50.01
2023-07-22T13:09:57.542Z,50
2023-07-22T13:12:57.239Z,50.02
2023-07-22T13:15:57.398Z,50.02
2023-07-22T13:18:57.096Z,50.01
2023-07-22T13:21:56.931Z,50.02
2023-07-22T13:24:57.008Z,49.98
2023-07-22T13:27:57.414Z,49.98
2023-07-22T13:30:58.194Z,49.99
2023-07-22T13:33:57.593Z,49.98
2023-07-22T13:36:56.922Z,49.97
2023-07-22T13:39:57.808Z,49.98
2023-07-22T13:42:57.385Z,49.99
2023-07-22T13:45:57.873Z,49.99
2023-07-22T13:48:57.549Z,50.01
2023-07-22T13:51:56.848Z,49.98
2023-07-22T13:54:56.829Z,49.99
2023-07-22T13:57:57.541Z,49.97
2023-07-22T14:00:58.662Z,49.99
2023-07-22T14:03:57.454Z,50.01
2023-07-22T14:06:57.920Z,50
2023-07-22T14:09:58.016Z,49.97
2023-07-22T14:12:58.339Z,49.98
2023-07-22T14:16:05.652Z,50
2023-07-22T14:18:56.542Z,49.99
2023-07-22T14:21:57.193Z,50
2023-07-22T14:24:58.226Z,49.98
2023-07-22T14:27:56.952Z,49.97
2023-07-22T14:30:57.704Z,50
2023-07-22T14:33:57.583Z,49.99
2023-07-22T14:36:57.579Z,49.99
2023-07-22T14:39:57.897Z,49.96
2023-07-22T14:42:57.811Z,49.96
2023-07-22T14:45:57.684Z,49.97
2023-07-22T14:48:57.264Z,49.96
2023-07-22T14:51:57.232Z,49.99
2023-07-22T14:54:57.331Z,49.96
2023-07-22T14:57:57.150Z,49.98
2023-07-22T15:00:59.382Z,50.02
2023-07-22T15:03:56.997Z,50.03
2023-07-22T15:06:57.673Z,50.01
2023-07-22T15:09:58.477Z,50.02
2023-07-22T15:12:57.666Z,50.01
2023-07-22T15:15:56.994Z,50
2023-07-22T15:18:57.427Z,50
2023-07-22T15:21:57.625Z,49.98
2023-07-22T15:24:57.069Z,49.97
2023-07-22T15:27:57.606Z,49.95
2023-07-22T15:30:57.365Z,50
2023-07-22T15:33:57.560Z,49.98
2023-07-22T15:36:57.641Z,49.97
2023-07-22T15:39:58.132Z,49.96
2023-07-22T15:42:57.147Z,49.96
2023-07-22T15:45:57.426Z,50.01
2023-07-22T15:48:57.092Z,49.98
2023-07-22T15:51:56.853Z,49.99
2023-07-22T15:54:57.756Z,50
2023-07-22T15:57:56.972Z,50.02
2023-07-22T16:00:58.168Z,50.04
2023-07-22T16:03:57.866Z,50.03
2023-07-22T16:06:57.525Z,50.02
2023-07-22T16:09:56.855Z,50.01
2023-07-22T16:12:57.095Z,50.02
2023-07-22T16:15:57.936Z,50.03
2023-07-22T16:18:57.632Z,49.97
2023-07-22T16:21:57.295Z,49.96
2023-07-22T16:24:57.998Z,49.96
2023-07-22T16:27:57.733Z,49.96
2023-07-22T16:30:58.230Z,50.01
2023-07-22T16:33:57.369Z,49.98
2023-07-22T16:36:57.246Z,49.97
2023-07-22T16:39:57.470Z,49.97
2023-07-22T16:42:57.133Z,49.97
2023-07-22T16:45:57.499Z,49.98
2023-07-22T16:48:57.878Z,50
2023-07-22T16:51:57.079Z,49.99
2023-07-22T16:54:57.366Z,50
2023-07-22T16:57:57.634Z,49.99
2023-07-22T17:00:57.661Z,50.04
2023-07-22T17:03:57.159Z,50.04
2023-07-22T17:07:00.183Z,50.04
2023-07-22T17:09:57.980Z,50
2023-07-22T17:12:57.236Z,49.99
2023-07-22T17:15:57.770Z,50
2023-07-22T17:18:57.900Z,50
2023-07-22T17:21:57.622Z,49.97
2023-07-22T17:24:57.719Z,49.96
2023-07-22T17:27:57.416Z,49.96
2023-07-22T17:30:57.462Z,50
2023-07-22T17:33:57.330Z,49.97
2023-07-22T17:36:57.170Z,50
2023-07-22T17:39:57.533Z,49.98
2023-07-22T17:42:57.452Z,49.98
2023-07-22T17:45:57.997Z,49.98
2023-07-22T17:48:57.473Z,49.98
2023-07-22T17:51:57.503Z,49.97
2023-07-22T17:54:57.140Z,49.97
2023-07-22T17:57:57.812Z,49.97
2023-07-22T18:00:58.062Z,50
2023-07-22T18:03:57.781Z,49.99
2023-07-22T18:06:57.350Z,49.99
2023-07-22T18:09:57.826Z,49.99
2023-07-22T18:12:57.853Z,49.99
2023-07-22T18:15:57.913Z,49.97
2023-07-22T18:18:57.492Z,49.98
2023-07-22T18:21:57.343Z,49.96
2023-07-22T18:24:58.305Z,50
2023-07-22T18:27:56.888Z,49.99
2023-07-22T18:30:57.238Z,49.99
2023-07-22T18:33:57.515Z,49.99
2023-07-22T18:36:58.052Z,49.98
2023-07-22T18:39:57.846Z,49.99
2023-07-22T18:42:57.126Z,50
2023-07-22T18:45:57.476Z,49.99
2023-07-22T18:48:57.671Z,50.01
2023-07-22T18:51:57.065Z,50
2023-07-22T18:54:57.454Z,50.01
2023-07-22T18:57:57.643Z,50.01
2023-07-22T19:01:25.702Z,50.01
2023-07-22T19:03:58.080Z,49.99
2023-07-22T19:06:58.125Z,50.01
2023-07-22T19:09:57.846Z,49.99
2023-07-22T19:12:57.623Z,49.99
2023-07-22T19:15:57.382Z,49.99
2023-07-22T19:18:56.893Z,49.99
2023-07-22T19:21:57.423Z,49.99
2023-07-22T19:24:57.714Z,49.99
2023-07-22T19:27:56.959Z,49.99
2023-07-22T19:30:57.906Z,49.99
2023-07-22T19:33:57.518Z,49.99
2023-07-22T19:36:56.960Z,49.99
2023-07-22T19:39:57.394Z,49.99
2023-07-22T19:42:57.083Z,49.99
2023-07-22T19:45:57.837Z,49.99
2023-07-22T19:48:56.925Z,49.99
2023-07-22T19:51:56.926Z,49.99
2023-07-22T19:54:57.946Z,49.99
2023-07-22T19:57:57.240Z,49.99
2023-07-22T20:00:57.655Z,49.99
2023-07-22T20:03:58.103Z,49.99
2023-07-22T20:06:57.279Z,49.99
2023-07-22T20:09:57.462Z,49.99
2023-07-22T20:12:57.609Z,49.99
2023-07-22T20:15:58.261Z,49.99
2023-07-22T20:18:57.520Z,49.99
2023-07-22T20:21:57.850Z,49.99
2023-07-22T20:24:57.427Z,49.99
2023-07-22T20:27:57.149Z,49.99
2023-07-22T20:30:58.455Z,49.99
2023-07-22T20:33:56.865Z,49.99
2023-07-22T20:36:57.193Z,49.99
2023-07-22T20:39:57.539Z,49.99
2023-07-22T20:42:57.669Z,49.99
2023-07-22T20:45:57.752Z,49.99
2023-07-22T20:48:57.465Z,49.99
2023-07-22T20:51:57.628Z,49.99
2023-07-22T20:54:57.487Z,49.99
2023-07-22T20:57:57.429Z,49.99
2023-07-22T21:00:57.417Z,49.99
2023-07-22T21:03:56.773Z,49.99
2023-07-22T21:06:57.421Z,49.99
2023-07-22T21:09:57.312Z,49.99
2023-07-22T21:12:57.670Z,49.99
2023-07-22T21:15:57.324Z,49.99
2023-07-22T21:18:58.141Z,49.99
2023-07-22T21:21:57.059Z,49.99
2023-07-22T21:24:57.833Z,49.99
2023-07-22T21:27:57.269Z,49.99
2023-07-22T21:30:57.766Z,49.99
2023-07-22T21:34:08.761Z,49.99
2023-07-22T21:36:57.536Z,49.99
2023-07-22T21:39:58.150Z,49.99
2023-07-22T21:42:57.977Z,49.99
2023-07-22T21:45:57.074Z,49.99
2023-07-22T21:48:57.862Z,49.99
2023-07-22T21:51:57.120Z,49.99
2023-07-22T21:54:57.498Z,49.99
2023-07-22T21:57:57.152Z,49.99
2023-07-22T22:00:58.001Z,49.99
2023-07-22T22:03:57.668Z,49.99
2023-07-22T22:06:57.247Z,49.99
2023-07-22T22:09:57.671Z,49.99
2023-07-22T22:12:56.641Z,49.99
2023-07-22T22:15:57.085Z,49.99
2023-07-22T22:18:57.430Z,49.99
2023-07-22T22:21:57.745Z,49.99
2023-07-22T22:24:56.675Z,49.99
2023-07-22T22:27:57.407Z,49.99
2023-07-22T22:30:57.014Z,49.99
2023-07-22T22:33:56.614Z,49.99
2023-07-22T22:36:56.880Z,49.99
2023-07-22T22:39:56.479Z,49.99
2023-07-22T22:42:57.209Z,49.99
2023-07-22T22:45:58.201Z,49.99
2023-07-22T22:48:57.502Z,49.99
2023-07-22T22:51:57.230Z,49.99
2023-07-22T22:54:57.270Z,49.99
2023-07-22T22:57:57.594Z,49.99
2023-07-22T23:00:58.071Z,49.99
2023-07-22T23:03:57.538Z,49.99
2023-07-22T23:06:57.613Z,49.99
2023-07-22T23:09:57.019Z,49.99
2023-07-22T23:12:57.834Z,49.99
2023-07-22T23:15:57.415Z,49.99
2023-07-22T23:18:57.283Z,49.99
2023-07-22T23:21:57.472Z,49.99
2023-07-22T23:24:59.508Z,49.99
2023-07-22T23:27:57.434Z,49.99
2023-07-22T23:30:57.468Z,49.99
2023-07-22T23:33:57.279Z,49.99
2023-07-22T23:36:57.681Z,49.99
2023-07-22T23:39:56.929Z,49.99
2023-07-22T23:42:57.429Z,49.99
2023-07-22T23:45:57.981Z,49.99
2023-07-22T23:48:56.573Z,49.99
2023-07-22T23:51:57.573Z,49.99
2023-07-22T23:54:58.074Z,49.99
2023-07-22T23:57:57.240Z,49.99
